Flight Track Log - Related Links

Times and Time Zones

All times are in EDT time to prevent confusion due to time zone crossing. See the EGF4279 flight status page for this flight to view local times or setup timezone preferences in your user account.

Time Position Orientation Groundspeed Altitude Reporting Facility
EDT Latitude Longitude Course Direction KTS MPH feet Rate Location/Type
Sat 06:06:52 PM 41.9333 -87.9000 188° South 170 196 1,500  Level Chicago TRACON
Sat 06:07:46 PM 41.9000 -87.9000 180° South 200 230 3,300 1,986 Climbing Chicago TRACON
Sat 06:09:00 PM 41.7163 -87.9587 180° South  Level Estimated
Sat 06:09:11 PM 41.8136 -87.9189 189° South 229 264 6,100  Level Chicago Center
Sat 06:10:00 PM 41.6279 -87.9759 192° South  Level Estimated
Sat 06:10:12 PM 41.7394 -87.9417 193° South 263 303 8,400  Level Chicago Center
Sat 06:11:00 PM 41.5395 -87.9931 189° South  Level Estimated
Sat 06:11:14 PM 41.6475 -87.9656 191° South 280 322 11,000  Level Chicago Center
Sat 06:12:00 PM 41.4510 -88.0101 188° South  Level FlightAware Approximate
Sat 06:12:15 PM 41.5653 -87.9850 190° South 297 342 12,500  Level Chicago Center
Sat 06:13:17 PM 41.4711 -88.0031 188° South 331 381 13,600 1,073 Climbing Chicago Center
Sat 06:14:18 PM 41.3653 -88.0239 188° South 361 415 14,700 683 Climbing Chicago Center
Sat 06:15:20 PM 41.2594 -88.0439 188° South 377 434 15,000 146 Climbing Chicago Center
Sat 06:16:21 PM 41.1519 -88.0644 188° South 387 445 15,000 -341 Level Chicago Center
Sat 06:17:23 PM 41.0472 -88.0856 189° South 384 442 14,300 -878 Descending Chicago Center
Sat 06:18:24 PM 40.9436 -88.1047 188° South 380 437 13,200 -1,073 Descending Chicago Center
Sat 06:19:26 PM 40.8433 -88.1239 188° South 371 427 12,100 -1,024 Descending Chicago Center
Sat 06:20:27 PM 40.7461 -88.1419 188° South 359 413 11,100 -590 Descending Chicago Center
Sat 06:21:28 PM 40.6278 -88.1656 189° South 358 412 10,900 -488 Descending Chicago Center
Sat 06:22:30 PM 40.5331 -88.1822 188° South 354 407 10,100 -488 Descending Chicago Center
Sat 06:23:31 PM 40.4414 -88.1983 188° South 343 395 9,900 -829 Descending Chicago Center
Sat 06:24:33 PM 40.3658 -88.2122 188° South 300 345 8,400 -1,854 Descending Chicago Center
Sat 06:25:34 PM 40.2914 -88.2278 189° South 276 318 6,100 -2,262 Descending Chicago Center

Login

Don't have an account? Register now (free) for customized features, flight alerts, and more!